Winfield, KS (67156)

10:40 AM CDT on July 28, 2016 (GMT -0500)
Randy's Backyard | | Change Station

Elev 1138 ft 37.24 °N, 97.00 °W | Updated 11 seconds ago

Clear
Clear
88.2 °F
Feels Like 94 °F
N
0.0
Wind Variable Wind from NNW
Gusts 0.0 mph

Today
High -- | Low -- °F
--% Chance of Precip.
Yesterday
High -- | Low -- °F
Precip. -- in
Pressure 29.93 in
Visibility 10.0 miles
Clouds Clear
Heat Index 94 °F
Dew Point 71 °F
Humidity 57%
Rainfall 0.00 in
Snow Depth Not available.
6:29 AM 8:38 PM
Waning Crescent, 31% visible
METAR KWLD 281454Z AUTO 07004KT 10SM CLR 31/22 A2997 RMK AO2 SLP134 T03060222 58013 $
Pressure 29.93 in
Visibility 10.0 miles
Clouds Clear
Heat Index 94 °F
Dew Point 71 °F
Humidity 57%
Rainfall 0.00 in
Snow Depth Not available.
6:29 AM 8:38 PM
Waning Crescent, 31% visible
METAR KWLD 281454Z AUTO 07004KT 10SM CLR 31/22 A2997 RMK AO2 SLP134 T03060222 58013 $

10-Day Weather Forecast

Almanac

Astronomy

Jul. 28, 2016 Rise Set
Actual Time
Civil Twilight
Nautical Twilight
Astronomical Twilight
Moon
Length of Visible Light
Length of Day
Tomorrow will be .
, % of the Moon is Illuminated

Today's Extremes

State Highs State Lows

Community

WunderPhotos

Upload Photos

1,928,129 photos uploaded!

WunderBlog® & News

Nearby

Air Quality

  Air Quality AQ Index Pollutant
Not available.

Snow Depth

Station Depth Elevation

Earthquake Activity

City Distance Mag. Time & Date
Minimum magnitude displayed is 2.5.

Coastal Water Temperatures

Place Temperature

Stations

Nearby Weather Stations

Station Location Temp. Windchill Dew Point Humidity Wind Precip. Elev Updated Type
                   

Watches & Warnings

There are currently no watches in effect.